Time;durP1;ratioP1;P1;durP2;ratioP2;P2;SDS_P1;SDS_P2;PMS_P1;PMS_P2;Temp;Humidity;BMP_temperature;BMP_pressure;BME280_temperature;BME280_humidity;BME280_pressure;Samples;Min_cycle;Max_cycle;Signal;HPM_P1;HPM_P2
2023/07/20 00:00:12;;;;;;;5.97;2.47;;;;;;;21.09;54.39;101319.97;5138546;27;20039;-68
2023/07/20 00:02:40;;;;;;;7.32;2.30;;;;;;;21.08;54.52;101323.81;5139143;27;20057;-68
2023/07/20 00:05:08;;;;;;;6.47;2.17;;;;;;;21.06;54.76;101323.28;5137448;27;20092;-69
2023/07/20 00:07:37;;;;;;;4.70;2.58;;;;;;;21.05;54.88;101318.09;5141359;27;20039;-68
2023/07/20 00:10:06;;;;;;;6.00;2.40;;;;;;;21.04;54.86;101319.19;5139935;27;20047;-69
2023/07/20 00:12:34;;;;;;;2.90;2.05;;;;;;;21.02;54.91;101314.00;5140773;27;20043;-67
2023/07/20 00:15:02;;;;;;;3.90;1.98;;;;;;;21.00;54.75;101316.19;5138899;27;20051;-68
2023/07/20 00:17:30;;;;;;;5.63;3.50;;;;;;;20.99;54.96;101324.66;5141375;27;20111;-68
2023/07/20 00:19:57;;;;;;;3.67;2.20;;;;;;;20.96;54.94;101322.50;5136886;27;20076;-68
2023/07/20 00:22:25;;;;;;;7.65;2.55;;;;;;;20.97;55.17;101321.41;5142580;27;20059;-67
2023/07/20 00:24:54;;;;;;;5.00;2.72;;;;;;;20.95;54.95;101318.13;5139562;27;20039;-68
2023/07/20 00:27:22;;;;;;;3.42;2.30;;;;;;;20.93;54.91;101323.88;5138921;27;20222;-68
2023/07/20 00:29:50;;;;;;;4.43;2.55;;;;;;;20.92;55.08;101321.41;5142771;27;20111;-68
2023/07/20 00:32:18;;;;;;;5.00;2.38;;;;;;;20.90;55.12;101321.69;5140370;27;20043;-68
2023/07/20 00:34:46;;;;;;;5.05;2.40;;;;;;;20.89;55.08;101319.25;5138293;27;20112;-68
2023/07/20 00:37:14;;;;;;;6.85;3.20;;;;;;;20.86;54.97;101317.88;5141501;27;20053;-68
2023/07/20 00:39:41;;;;;;;5.85;2.28;;;;;;;20.85;54.86;101318.97;5142014;27;20047;-68
2023/07/20 00:42:11;;;;;;;5.93;2.75;;;;;;;20.85;54.93;101318.16;5139913;28;20068;-68
2023/07/20 00:44:38;;;;;;;4.45;2.63;;;;;;;20.83;55.02;101318.44;5140190;27;20047;-67
2023/07/20 00:47:07;;;;;;;5.53;2.42;;;;;;;20.80;54.88;101317.09;5143665;27;20096;-68
2023/07/20 00:49:35;;;;;;;8.77;3.10;;;;;;;20.80;54.98;101322.56;5146909;27;20047;-68
2023/07/20 00:52:07;;;;;;;4.65;2.55;;;;;;;20.78;54.82;101324.78;5148334;27;20051;-68
2023/07/20 00:54:36;;;;;;;5.13;2.42;;;;;;;20.77;54.86;101327.78;5144860;27;20051;-68
2023/07/20 00:57:05;;;;;;;5.15;2.28;;;;;;;20.75;54.79;101319.88;5146667;27;20050;-68
2023/07/20 00:59:35;;;;;;;6.82;2.60;;;;;;;20.74;54.72;101322.88;5144869;27;20390;-68
2023/07/20 01:02:03;;;;;;;5.53;2.53;;;;;;;20.72;54.90;101320.44;5141633;27;20040;-68
2023/07/20 01:04:31;;;;;;;6.38;2.97;;;;;;;20.71;54.91;101326.97;5139215;27;20047;-68
2023/07/20 01:07:06;;;;;;;7.07;2.67;;;;;;;20.68;54.82;101316.63;5144330;27;20071;-68
2023/07/20 01:09:40;;;;;;;5.00;2.65;;;;;;;20.68;54.88;101327.53;5143455;27;20128;-69
2023/07/20 01:12:13;;;;;;;5.20;2.83;;;;;;;20.66;54.84;101326.19;5143324;27;20043;-69
2023/07/20 01:14:42;;;;;;;4.78;2.58;;;;;;;20.65;54.96;101333.56;5144668;27;20051;-68
2023/07/20 01:17:10;;;;;;;7.28;2.80;;;;;;;20.63;54.63;101333.00;5145048;27;20061;-68
2023/07/20 01:19:38;;;;;;;7.45;2.80;;;;;;;20.62;54.80;101325.09;5143132;27;20092;-68
2023/07/20 01:22:17;;;;;;;6.07;3.17;;;;;;;20.61;54.95;101324.28;5145718;27;20115;-68
2023/07/20 01:25:19;;;;;;;6.43;2.78;;;;;;;20.60;54.90;101333.56;5146181;27;20462;-68
2023/07/20 01:28:27;;;;;;;5.75;2.67;;;;;;;20.59;54.77;101333.84;5128241;27;20044;-68
2023/07/20 01:31:03;;;;;;;5.82;3.10;;;;;;;20.57;54.83;101339.59;5143756;27;20043;-68
2023/07/20 01:33:34;;;;;;;6.05;2.95;;;;;;;20.55;54.99;101328.13;5144259;27;20047;-69
2023/07/20 01:36:03;;;;;;;4.75;2.70;;;;;;;20.55;54.97;101333.59;5141708;27;20402;-68
2023/07/20 01:38:32;;;;;;;7.07;3.40;;;;;;;20.54;55.02;101323.75;5145476;27;20043;-68
2023/07/20 01:41:00;;;;;;;4.47;2.33;;;;;;;20.52;54.98;101334.13;5148914;27;20401;-67
2023/07/20 01:43:27;;;;;;;5.28;3.10;;;;;;;20.50;54.92;101330.03;5140298;27;20069;-68
2023/07/20 01:45:55;;;;;;;5.55;2.85;;;;;;;20.49;55.16;101326.50;5148763;27;20608;-67
2023/07/20 01:48:23;;;;;;;5.53;2.90;;;;;;;20.48;55.02;101327.59;5148778;27;20464;-68
2023/07/20 01:50:52;;;;;;;7.40;3.22;;;;;;;20.46;55.10;101333.31;5145803;27;20051;-68
2023/07/20 01:53:20;;;;;;;6.60;3.08;;;;;;;20.45;54.89;101330.88;5147723;27;20080;-68
2023/07/20 01:55:48;;;;;;;6.32;3.05;;;;;;;20.45;55.15;101344.53;5145698;27;20055;-67
2023/07/20 01:58:16;;;;;;;7.43;2.78;;;;;;;20.43;55.11;101344.78;5146262;27;20126;-68
2023/07/20 02:00:44;;;;;;;7.28;3.75;;;;;;;20.42;55.15;101336.88;5140402;27;20051;-68
2023/07/20 02:03:12;;;;;;;6.90;2.92;;;;;;;20.40;55.00;101347.25;5145072;27;20088;-68
2023/07/20 02:05:40;;;;;;;5.15;2.83;;;;;;;20.38;55.30;101338.50;5142530;27;20464;-68
2023/07/20 02:08:09;;;;;;;7.47;2.83;;;;;;;20.38;55.24;101343.94;5142110;27;20083;-68
2023/07/20 02:10:37;;;;;;;5.28;3.15;;;;;;;20.35;55.27;101341.78;5143988;27;20055;-69
2023/07/20 02:13:05;;;;;;;9.00;3.03;;;;;;;20.35;55.34;101348.06;5143308;27;20115;-68
2023/07/20 02:15:33;;;;;;;5.60;3.03;;;;;;;20.33;55.36;101352.97;5141865;27;20372;-68
2023/07/20 02:18:01;;;;;;;6.43;3.42;;;;;;;20.26;55.50;101333.31;5143580;27;20043;-67
2023/07/20 02:20:29;;;;;;;8.55;3.42;;;;;;;20.32;55.47;101354.06;5142779;27;20054;-68
2023/07/20 02:22:56;;;;;;;7.38;2.70;;;;;;;20.31;55.32;101354.34;5140296;27;20305;-68
2023/07/20 02:25:26;;;;;;;4.85;2.63;;;;;;;20.29;55.69;101354.59;5144176;27;20050;-67
2023/07/20 02:27:53;;;;;;;6.68;3.08;;;;;;;20.26;55.56;101349.69;5143472;27;20054;-68
2023/07/20 02:30:21;;;;;;;7.22;3.53;;;;;;;20.26;55.80;101355.16;5141825;27;20068;-67
2023/07/20 02:32:49;;;;;;;8.55;3.85;;;;;;;20.26;56.13;101354.34;5142066;27;20039;-68
2023/07/20 02:35:17;;;;;;;7.90;4.72;;;;;;;20.24;56.23;101359.25;5143389;27;20142;-67
2023/07/20 02:37:45;;;;;;;12.10;4.45;;;;;;;20.23;56.68;101357.63;5142230;27;20069;-68
2023/07/20 02:40:13;;;;;;;12.07;4.60;;;;;;;20.21;56.50;101362.53;5141083;27;20054;-68
2023/07/20 02:42:42;;;;;;;8.70;4.22;;;;;;;20.17;57.01;101359.53;5142583;27;20047;-68
2023/07/20 02:45:10;;;;;;;10.68;4.10;;;;;;;20.16;56.69;101357.88;5142064;27;20051;-68
2023/07/20 02:47:38;;;;;;;6.95;3.70;;;;;;;20.15;57.15;101362.53;5142688;27;20047;-68
2023/07/20 02:50:08;;;;;;;6.78;4.15;;;;;;;20.12;57.32;101367.72;5142355;27;20055;-68
2023/07/20 02:52:36;;;;;;;7.63;4.20;;;;;;;20.12;57.53;101373.19;5141282;27;20051;-67
2023/07/20 02:55:05;;;;;;;7.70;3.65;;;;;;;20.09;57.63;101357.34;5141756;27;20092;-68
2023/07/20 02:57:33;;;;;;;8.43;4.20;;;;;;;20.07;57.71;101371.25;5139542;27;20069;-68
2023/07/20 03:00:05;;;;;;;10.07;4.70;;;;;;;20.05;57.96;101376.16;5142660;27;20043;-68
2023/07/20 03:02:33;;;;;;;12.60;5.35;;;;;;;20.05;57.91;101378.09;5140101;27;20070;-68
2023/07/20 03:05:05;;;;;;;10.45;4.32;;;;;;;20.05;57.64;101378.09;5140178;27;20054;-68
2023/07/20 03:07:33;;;;;;;7.25;4.60;;;;;;;20.04;57.80;101380.00;5140077;27;20058;-68
2023/07/20 03:10:01;;;;;;;8.40;4.68;;;;;;;20.03;57.74;101380.25;5141879;27;20043;-69
2023/07/20 03:12:29;;;;;;;9.63;4.53;;;;;;;20.02;57.96;101387.63;5142659;27;20039;-68
2023/07/20 03:14:57;;;;;;;8.82;4.45;;;;;;;20.01;58.29;101390.63;5144687;27;20043;-67
2023/07/20 03:17:26;;;;;;;8.02;4.80;;;;;;;20.01;58.09;101396.09;5139261;27;21275;-67
2023/07/20 03:19:54;;;;;;;10.15;4.75;;;;;;;19.99;58.17;101385.44;5143771;27;20052;-68
2023/07/20 03:22:24;;;;;;;9.48;5.05;;;;;;;19.98;58.35;101393.91;5144150;27;20043;-67
2023/07/20 03:24:52;;;;;;;9.43;4.82;;;;;;;19.96;58.72;101394.16;5144994;27;20050;-68
2023/07/20 03:27:20;;;;;;;7.35;4.43;;;;;;;19.96;58.46;101393.34;5141563;27;20115;-68
2023/07/20 03:29:47;;;;;;;9.27;4.82;;;;;;;19.95;58.63;101391.72;5144973;27;20053;-68
2023/07/20 03:32:15;;;;;;;7.55;5.03;;;;;;;19.94;58.79;101390.91;5140778;27;20533;-69
2023/07/20 03:34:45;;;;;;;8.45;4.75;;;;;;;19.93;58.73;101385.72;5145422;27;20072;-69
2023/07/20 03:37:14;;;;;;;9.88;5.00;;;;;;;19.92;59.17;101389.53;5141664;27;20058;-69
2023/07/20 03:39:41;;;;;;;6.97;4.63;;;;;;;19.92;58.81;101394.97;5138417;27;20565;-68
2023/07/20 03:42:09;;;;;;;9.40;5.85;;;;;;;19.90;58.70;101397.97;5144743;27;20065;-69
2023/07/20 03:44:37;;;;;;;11.35;6.60;;;;;;;19.91;58.76;101409.72;5141522;27;20054;-69
2023/07/20 03:47:06;;;;;;;9.98;5.43;;;;;;;19.89;59.20;101400.97;5139792;27;20072;-68
2023/07/20 03:49:34;;;;;;;9.50;5.85;;;;;;;19.87;59.19;101403.16;5141168;27;20053;-68
2023/07/20 03:52:04;;;;;;;10.00;5.15;;;;;;;19.87;58.83;101398.53;5139638;27;20051;-68
2023/07/20 03:54:32;;;;;;;13.65;5.10;;;;;;;19.86;58.89;101413.25;5141305;27;20047;-68
2023/07/20 03:57:00;;;;;;;7.25;4.85;;;;;;;19.86;58.76;101407.78;5139691;27;20072;-67
2023/07/20 03:59:28;;;;;;;8.93;4.90;;;;;;;19.85;58.88;101414.34;5137278;27;20047;-68
2023/07/20 04:01:56;;;;;;;8.88;4.18;;;;;;;19.83;58.78;101413.78;5137709;27;20055;-67
2023/07/20 04:04:24;;;;;;;7.03;4.38;;;;;;;19.82;58.57;101418.44;5139211;27;20077;-68
2023/07/20 04:06:50;;;;;;;9.27;4.47;;;;;;;19.82;58.61;101420.34;5139469;27;20062;-67
2023/07/20 04:09:19;;;;;;;9.43;4.55;;;;;;;19.80;58.96;101417.06;5142060;27;20042;-68
2023/07/20 04:11:47;;;;;;;9.25;4.85;;;;;;;19.78;59.19;101409.16;5138380;27;20186;-68
2023/07/20 04:14:15;;;;;;;6.55;4.35;;;;;;;19.78;58.85;101416.50;4789011;27;10000563;-68
2023/07/20 04:16:43;;;;;;;7.18;4.38;;;;;;;19.78;58.69;101413.78;5137847;27;20099;-67
2023/07/20 04:19:11;;;;;;;9.07;4.18;;;;;;;19.78;58.54;101411.06;5137573;27;20047;-68
2023/07/20 04:21:41;;;;;;;7.00;3.65;;;;;;;19.77;58.61;101409.41;5139723;27;20055;-68
2023/07/20 04:24:09;;;;;;;6.20;3.53;;;;;;;19.77;58.33;101414.88;5139232;27;20050;-69
2023/07/20 04:26:39;;;;;;;6.28;3.88;;;;;;;19.76;58.37;101415.97;5139527;27;20035;-69
2023/07/20 04:29:06;;;;;;;5.60;3.17;;;;;;;19.77;58.28;101420.31;5137482;27;20224;-68
2023/07/20 04:31:35;;;;;;;6.15;3.47;;;;;;;19.76;58.54;101424.13;5138572;27;20043;-69
2023/07/20 04:34:02;;;;;;;6.20;3.20;;;;;;;19.74;58.48;101426.31;5137739;27;20136;-67
2023/07/20 04:36:30;;;;;;;5.07;3.10;;;;;;;19.73;58.52;101430.13;5133577;27;20054;-68
2023/07/20 04:38:58;;;;;;;6.10;3.25;;;;;;;19.72;58.61;101426.59;5141100;27;20050;-67
2023/07/20 04:41:26;;;;;;;6.35;3.15;;;;;;;19.68;58.52;101421.94;5140788;28;20055;-67
2023/07/20 04:43:55;;;;;;;13.25;3.78;;;;;;;19.71;58.31;101430.41;5134743;27;20068;-68
2023/07/20 04:46:23;;;;;;;6.68;2.97;;;;;;;19.69;58.35;101427.13;5137412;28;20043;-69
2023/07/20 04:48:51;;;;;;;7.00;3.05;;;;;;;19.69;58.16;101426.31;5139401;27;20069;-70
2023/07/20 04:51:20;;;;;;;4.40;3.35;;;;;;;19.69;58.38;101423.56;5140111;27;20108;-69
2023/07/20 04:53:48;;;;;;;5.07;2.90;;;;;;;19.68;58.24;101419.22;5137400;27;20047;-71
2023/07/20 04:56:16;;;;;;;7.28;2.92;;;;;;;19.67;58.30;101415.66;5142086;27;20096;-70
2023/07/20 04:58:45;;;;;;;4.70;2.75;;;;;;;19.67;58.23;101423.03;5140708;27;20043;-69
2023/07/20 05:01:14;;;;;;;4.28;3.00;;;;;;;19.66;58.19;101419.47;5141497;27;20055;-69
2023/07/20 05:03:42;;;;;;;4.35;2.58;;;;;;;19.67;58.18;101425.75;5137289;28;20058;-71
2023/07/20 05:06:10;;;;;;;3.50;2.33;;;;;;;19.66;58.11;101418.66;5143688;27;20051;-70
2023/07/20 05:08:38;;;;;;;3.63;2.15;;;;;;;19.66;58.05;101414.03;5138694;27;20051;-66
2023/07/20 05:11:07;;;;;;;5.25;2.60;;;;;;;19.65;57.90;101423.28;5132885;27;20069;-69
2023/07/20 05:13:34;;;;;;;4.45;2.40;;;;;;;19.65;57.77;101414.28;5143599;27;20073;-70
2023/07/20 05:16:02;;;;;;;3.53;2.30;;;;;;;19.66;57.81;101418.66;5137723;27;20043;-70
2023/07/20 05:18:31;;;;;;;3.72;1.70;;;;;;;19.66;57.63;101424.94;5141176;27;20053;-68
2023/07/20 05:20:59;;;;;;;4.30;2.38;;;;;;;19.66;57.59;101426.84;5136924;27;20155;-72
2023/07/20 05:23:27;;;;;;;5.93;2.03;;;;;;;19.67;57.42;101428.47;5141384;27;20051;-69
2023/07/20 05:25:56;;;;;;;4.32;2.10;;;;;;;19.68;57.32;101422.75;5142436;28;20047;-76
2023/07/20 05:28:23;;;;;;;4.40;1.80;;;;;;;19.69;57.17;101429.03;5143661;28;20510;-69
2023/07/20 05:30:52;;;;;;;2.25;1.50;;;;;;;19.69;57.27;101432.56;4780121;27;10000021;-68
2023/07/20 05:33:20;;;;;;;3.30;1.73;;;;;;;19.67;57.17;101423.03;5140274;27;20487;-61
2023/07/20 05:35:49;;;;;;;5.30;1.65;;;;;;;19.70;57.06;101426.03;5139729;27;20050;-66
2023/07/20 05:38:17;;;;;;;4.05;1.77;;;;;;;19.70;57.01;101436.13;5137630;27;20081;-66
2023/07/20 05:40:46;;;;;;;2.53;1.45;;;;;;;19.71;57.16;101440.50;5140766;27;20039;-69
2023/07/20 05:43:15;;;;;;;3.83;1.98;;;;;;;19.69;57.60;101440.75;5142823;27;20061;-68
2023/07/20 05:45:42;;;;;;;3.40;1.80;;;;;;;19.64;57.76;101438.00;5138289;27;20048;-67
2023/07/20 05:48:12;;;;;;;3.72;2.08;;;;;;;19.67;57.57;101448.38;5144354;27;20055;-67
2023/07/20 05:50:43;;;;;;;6.85;2.05;;;;;;;19.63;57.60;101441.81;5142887;27;20332;-67
2023/07/20 05:53:12;;;;;;;2.47;1.63;;;;;;;19.68;57.41;101452.75;5146018;27;20051;-67
2023/07/20 05:55:40;;;;;;;4.07;1.70;;;;;;;19.70;57.30;101452.50;5143711;27;20073;-69
2023/07/20 05:58:08;;;;;;;2.60;1.50;;;;;;;19.70;57.19;101455.22;5138659;27;20097;-67
2023/07/20 06:00:36;;;;;;;3.20;1.50;;;;;;;19.71;57.22;101454.94;5143814;27;20048;-67
2023/07/20 06:03:04;;;;;;;3.58;1.60;;;;;;;19.71;57.20;101448.66;5142798;27;20043;-67
2023/07/20 06:05:31;;;;;;;4.07;2.17;;;;;;;19.72;57.12;101447.59;5159531;27;20054;-68
2023/07/20 06:08:00;;;;;;;2.60;1.55;;;;;;;19.72;57.28;101445.69;5146845;27;20039;-68
2023/07/20 06:10:29;;;;;;;2.60;1.60;;;;;;;19.73;57.18;101455.50;5142721;27;20051;-68
2023/07/20 06:12:57;;;;;;;1.70;1.45;;;;;;;19.75;57.03;101447.03;5137788;27;20130;-68
2023/07/20 06:15:26;;;;;;;5.68;1.85;;;;;;;19.76;57.13;101454.16;5164903;27;20054;-68
2023/07/20 06:17:55;;;;;;;4.68;1.40;;;;;;;19.78;57.14;101460.16;5152379;27;20047;-68
2023/07/20 06:20:23;;;;;;;5.03;1.70;;;;;;;19.81;57.14;101459.63;5148370;27;20059;-69
2023/07/20 06:22:51;;;;;;;3.42;1.52;;;;;;;19.74;57.28;101448.97;5155512;27;20047;-68
2023/07/20 06:25:20;;;;;;;3.03;1.65;;;;;;;19.85;57.16;101468.09;5152734;27;20047;-68
2023/07/20 06:27:51;;;;;;;2.47;1.55;;;;;;;19.86;56.96;101461.53;5154537;27;20054;-68
2023/07/20 06:30:19;;;;;;;3.53;1.90;;;;;;;19.87;56.96;101463.19;5144314;27;20042;-67
2023/07/20 06:32:47;;;;;;;2.13;1.40;;;;;;;19.88;56.82;101462.09;5133697;27;20059;-69
2023/07/20 06:35:15;;;;;;;2.20;1.52;;;;;;;19.89;56.94;101461.00;5127957;27;20048;-68
2023/07/20 06:37:43;;;;;;;3.00;1.48;;;;;;;19.88;56.67;101454.72;5140068;27;20095;-67
2023/07/20 06:40:12;;;;;;;2.20;1.20;;;;;;;19.89;56.59;101461.00;5144389;27;20631;-68
2023/07/20 06:42:42;;;;;;;4.72;1.65;;;;;;;19.88;56.54;101457.44;5136608;27;20541;-68
2023/07/20 06:45:14;;;;;;;2.65;1.30;;;;;;;19.89;56.50;101455.53;5136552;27;20055;-67
2023/07/20 06:47:42;;;;;;;2.45;1.13;;;;;;;19.90;56.35;101457.19;5142970;27;20154;-67
2023/07/20 06:50:11;;;;;;;3.13;1.35;;;;;;;19.91;56.64;101458.81;5142238;27;20057;-67
2023/07/20 06:52:46;;;;;;;1.45;1.10;;;;;;;19.92;56.60;101464.00;5140449;27;20046;-65
2023/07/20 06:55:14;;;;;;;2.33;1.60;;;;;;;19.95;56.50;101459.91;5139716;27;20043;-69
2023/07/20 06:57:42;;;;;;;2.90;0.88;;;;;;;19.97;56.55;101457.75;5135008;27;21062;-67
2023/07/20 07:00:17;;;;;;;2.00;1.05;;;;;;;20.00;56.28;101468.13;5139965;27;20619;-70
2023/07/20 07:02:45;;;;;;;2.38;1.30;;;;;;;20.00;56.32;101468.94;5139927;27;20084;-68
2023/07/20 07:05:18;;;;;;;2.83;1.40;;;;;;;19.99;56.17;101475.50;5141317;27;20043;-68
2023/07/20 07:07:48;;;;;;;1.10;0.88;;;;;;;19.99;56.33;101477.41;5142092;27;20047;-67
2023/07/20 07:10:18;;;;;;;2.78;1.05;;;;;;;19.97;56.06;101480.41;5142295;27;20043;-69
2023/07/20 07:12:46;;;;;;;1.83;1.15;;;;;;;19.98;56.11;101478.47;5139648;27;20039;-67
2023/07/20 07:15:13;;;;;;;1.30;0.98;;;;;;;19.96;55.92;101488.84;5139457;27;20043;-70
2023/07/20 07:17:43;;;;;;;3.20;1.05;;;;;;;19.94;55.88;101480.94;5144405;27;20051;-71
2023/07/20 07:20:11;;;;;;;1.30;0.80;;;;;;;19.94;55.93;101488.28;5141525;27;20108;-71
2023/07/20 07:22:48;;;;;;;1.25;1.02;;;;;;;19.92;55.92;101483.09;5141300;27;20076;-70
2023/07/20 07:25:20;;;;;;;1.85;1.10;;;;;;;19.90;55.80;101482.56;5143009;27;20179;-68
2023/07/20 07:27:51;;;;;;;1.85;1.02;;;;;;;19.90;55.78;101479.81;5139042;27;20398;-68
2023/07/20 07:30:19;;;;;;;2.40;1.23;;;;;;;19.89;55.82;101480.09;5143047;27;20047;-69
2023/07/20 07:32:48;;;;;;;1.48;0.90;;;;;;;19.88;55.81;101481.19;5137914;27;20043;-67
2023/07/20 07:35:16;;;;;;;1.50;1.00;;;;;;;19.87;55.57;101476.81;5141552;27;20428;-69
2023/07/20 07:37:46;;;;;;;2.17;1.30;;;;;;;19.87;55.56;101487.72;5137253;27;20066;-69
2023/07/20 07:40:33;;;;;;;2.25;1.00;;;;;;;19.84;55.81;101480.91;5137003;27;20096;-67
2023/07/20 07:43:01;;;;;;;1.88;0.90;;;;;;;19.84;55.64;101480.91;5136518;27;20051;-68
2023/07/20 07:45:29;;;;;;;3.17;1.40;;;;;;;19.84;55.61;101489.09;5145632;27;20051;-62
2023/07/20 07:47:58;;;;;;;3.63;1.00;;;;;;;19.85;55.56;101493.44;5144963;27;20055;-72
2023/07/20 07:50:27;;;;;;;1.90;1.00;;;;;;;19.86;55.62;101491.53;5141457;27;20047;-68
2023/07/20 07:52:55;;;;;;;1.30;1.00;;;;;;;19.89;55.54;101496.47;5143824;27;20487;-66
2023/07/20 07:55:22;;;;;;;3.72;1.17;;;;;;;19.89;55.50;101491.81;5141280;27;20057;-71
2023/07/20 07:57:50;;;;;;;3.25;0.82;;;;;;;19.93;55.41;101497.56;5144213;27;20035;-70
2023/07/20 08:00:19;;;;;;;2.40;1.00;;;;;;;19.95;55.54;101498.13;5146854;27;20043;-71
2023/07/20 08:02:48;;;;;;;3.00;1.13;;;;;;;19.95;55.33;101496.22;5143105;27;20047;-71
2023/07/20 08:05:17;;;;;;;2.53;1.20;;;;;;;19.94;54.98;101491.84;5141151;27;20057;-70
2023/07/20 08:07:45;;;;;;;3.92;1.23;;;;;;;19.93;54.86;101492.94;5142451;27;20099;-72
2023/07/20 08:10:13;;;;;;;1.77;0.90;;;;;;;19.92;54.82;101499.47;5137313;27;20047;-69
2023/07/20 08:12:41;;;;;;;1.20;1.10;;;;;;;19.93;54.64;101500.28;5139591;27;20046;-69
2023/07/20 08:15:11;;;;;;;1.38;0.80;;;;;;;19.93;54.74;101503.84;5135914;27;20043;-69
2023/07/20 08:17:39;;;;;;;0.70;0.70;;;;;;;19.92;54.77;101506.84;5138976;27;20043;-69
2023/07/20 08:20:09;;;;;;;1.00;0.82;;;;;;;19.92;54.54;101504.94;5139789;27;20062;-69
2023/07/20 08:22:39;;;;;;;3.83;1.13;;;;;;;19.91;54.26;101503.28;5136894;27;20058;-68
2023/07/20 08:25:07;;;;;;;2.08;1.10;;;;;;;19.91;54.27;101505.19;5142225;27;20051;-69
2023/07/20 08:27:35;;;;;;;4.38;0.93;;;;;;;19.90;54.10;101507.09;5138949;27;20043;-69
2023/07/20 08:30:05;;;;;;;2.35;0.80;;;;;;;19.90;54.25;101506.28;5136814;27;20070;-68
2023/07/20 08:32:33;;;;;;;0.60;0.60;;;;;;;19.92;54.48;101507.66;5134468;27;20051;-66
2023/07/20 08:35:02;;;;;;;0.80;0.68;;;;;;;19.93;54.52;101505.75;5139507;27;20103;-67
2023/07/20 08:37:29;;;;;;;1.23;1.00;;;;;;;19.96;54.24;101499.75;5138308;27;20378;-67
2023/07/20 08:39:59;;;;;;;1.88;1.20;;;;;;;19.98;54.78;101503.03;5140776;27;20039;-67
2023/07/20 08:42:28;;;;;;;1.85;1.00;;;;;;;20.00;54.39;101500.88;5136314;28;20411;-66
2023/07/20 08:44:57;;;;;;;4.85;1.00;;;;;;;20.00;54.21;101493.50;5137746;28;20065;-67
2023/07/20 08:47:26;;;;;;;1.48;0.90;;;;;;;19.99;54.00;101493.75;5135199;27;20051;-67
2023/07/20 08:49:56;;;;;;;2.45;1.20;;;;;;;19.98;53.78;101494.84;5139788;28;20043;-66
2023/07/20 08:52:24;;;;;;;3.95;0.80;;;;;;;19.96;53.54;101492.41;5136323;28;20047;-65
2023/07/20 08:54:53;;;;;;;2.20;0.90;;;;;;;19.95;53.47;101496.22;5133862;28;20073;-65
2023/07/20 08:57:23;;;;;;;1.13;1.02;;;;;;;19.95;53.60;101492.66;5133711;28;20065;-67
2023/07/20 08:59:53;;;;;;;2.88;0.60;;;;;;;19.95;53.64;101489.94;5139514;28;20047;-66
2023/07/20 09:02:25;;;;;;;2.08;0.80;;;;;;;19.95;53.71;101487.22;5138146;27;20043;-65
2023/07/20 09:04:53;;;;;;;1.75;0.85;;;;;;;19.97;53.58;101495.94;5137926;28;20052;-67
2023/07/20 09:07:21;;;;;;;1.60;0.80;;;;;;;19.98;53.24;101492.94;5136031;28;20055;-66
2023/07/20 09:09:49;;;;;;;3.80;1.00;;;;;;;20.00;53.00;101482.59;5141545;27;20095;-66
2023/07/20 09:12:17;;;;;;;1.08;0.70;;;;;;;20.05;53.28;101488.06;5139147;27;20114;-66
2023/07/20 09:14:46;;;;;;;2.13;0.60;;;;;;;20.09;53.32;101483.69;5141566;27;20387;-67
2023/07/20 09:17:15;;;;;;;0.80;0.80;;;;;;;20.13;53.57;101476.59;5140496;27;20476;-67
2023/07/20 09:19:48;;;;;;;3.08;1.25;;;;;;;20.16;53.41;101480.72;5139676;27;20056;-67
2023/07/20 09:22:17;;;;;;;2.30;0.80;;;;;;;20.19;53.22;101482.06;5143116;27;20047;-66
2023/07/20 09:24:45;;;;;;;1.95;0.70;;;;;;;20.19;53.48;101482.91;5141541;27;20074;-66
2023/07/20 09:27:13;;;;;;;1.73;0.70;;;;;;;20.23;53.08;101475.81;5140293;27;20081;-66
2023/07/20 09:29:52;;;;;;;1.40;0.82;;;;;;;20.27;53.22;101485.09;5140533;27;20415;-66
2023/07/20 09:32:21;;;;;;;0.60;0.60;;;;;;;20.33;53.33;101477.72;5145808;27;20055;-67
2023/07/20 09:34:53;;;;;;;0.85;0.80;;;;;;;20.39;53.23;101477.50;5143160;27;20059;-67
2023/07/20 09:37:22;;;;;;;1.75;0.98;;;;;;;20.45;53.19;101475.59;5136922;27;20047;-67
2023/07/20 09:39:52;;;;;;;3.05;0.90;;;;;;;20.49;53.26;101473.13;5142084;27;20071;-68
2023/07/20 09:42:25;;;;;;;1.67;0.50;;;;;;;20.49;53.20;101468.50;5148239;27;20069;-67
2023/07/20 09:44:57;;;;;;;1.17;0.90;;;;;;;20.53;53.11;101466.84;5146085;27;20475;-67
2023/07/20 09:47:26;;;;;;;1.88;0.60;;;;;;;20.55;53.10;101470.13;5137156;27;20051;-67
2023/07/20 09:50:00;;;;;;;0.93;0.77;;;;;;;20.58;53.16;101469.59;5145863;27;20050;-68
2023/07/20 09:52:31;;;;;;;1.13;0.68;;;;;;;20.58;52.98;101458.66;5148374;27;20047;-66
2023/07/20 09:55:03;;;;;;;1.67;0.63;;;;;;;20.60;52.74;101458.38;5144443;27;20043;-66
2023/07/20 09:57:33;;;;;;;2.00;0.85;;;;;;;20.61;52.87;101466.31;5147896;27;20454;-68
2023/07/20 10:00:07;;;;;;;1.15;0.80;;;;;;;20.62;52.68;101465.22;5139468;27;20431;-67
2023/07/20 10:02:41;;;;;;;;;;;;;;;20.66;52.83;101460.03;5145327;27;20058;-68
2023/07/20 10:05:11;;;;;;;0.95;0.60;;;;;;;20.69;52.72;101460.28;5143194;27;20036;-67
2023/07/20 10:07:45;;;;;;;1.00;0.55;;;;;;;20.70;52.75;101451.00;5148267;27;20055;-66
2023/07/20 10:10:15;;;;;;;0.85;0.50;;;;;;;20.76;52.72;101460.00;5142867;27;20047;-68
2023/07/20 10:12:43;;;;;;;1.98;0.65;;;;;;;20.79;52.56;101456.72;5147120;27;20047;-67
2023/07/20 10:15:21;;;;;;;0.98;0.52;;;;;;;20.79;52.57;101454.00;5146003;27;20046;-67
2023/07/20 10:17:58;;;;;;;2.35;0.77;;;;;;;20.80;52.36;101458.38;5136194;27;20068;-68
2023/07/20 10:20:27;;;;;;;0.90;0.70;;;;;;;20.82;52.26;101458.88;5144571;27;20066;-66
2023/07/20 10:22:57;;;;;;;1.30;0.60;;;;;;;20.84;52.46;101451.22;5148244;27;20039;-68
2023/07/20 10:25:25;;;;;;;0.52;0.52;;;;;;;20.89;52.53;101453.13;5141202;27;20101;-67
2023/07/20 10:27:54;;;;;;;0.60;0.57;;;;;;;20.92;52.58;101449.84;5147824;27;20047;-68
2023/07/20 10:30:24;;;;;;;2.20;0.70;;;;;;;20.96;52.63;101448.19;5145433;27;20043;-68
2023/07/20 10:32:53;;;;;;;0.82;0.60;;;;;;;20.99;52.53;101442.19;5138335;27;20050;-68
2023/07/20 10:35:21;;;;;;;1.48;0.80;;;;;;;21.00;52.34;101439.16;5146087;27;20047;-67
2023/07/20 10:37:54;;;;;;;1.10;0.60;;;;;;;21.04;52.26;101444.91;5147097;27;20168;-66
2023/07/20 10:40:26;;;;;;;1.90;0.80;;;;;;;21.05;52.13;101444.63;5143458;27;20082;-67
2023/07/20 10:42:58;;;;;;;2.05;0.80;;;;;;;21.09;52.30;101442.16;5146377;27;20115;-67
2023/07/20 10:45:36;;;;;;;1.05;0.65;;;;;;;21.12;52.51;101441.59;5140975;27;20073;-67
2023/07/20 10:48:05;;;;;;;1.52;0.90;;;;;;;21.18;52.06;101436.94;5144588;27;20047;-66
2023/07/20 10:50:34;;;;;;;0.91;0.89;;;;;;;21.20;51.74;101437.47;4785838;27;10000609;-67
2023/07/20 10:53:06;;;;;;;1.15;0.80;;;;;;;21.21;51.86;101430.91;5140479;27;20072;-67
2023/07/20 10:55:34;;;;;;;1.13;0.90;;;;;;;21.21;51.32;101434.47;5144316;27;20042;-67
2023/07/20 10:58:11;;;;;;;0.57;0.57;;;;;;;21.19;51.26;101419.44;5142913;27;20046;-67
2023/07/20 11:00:57;;;;;;;1.77;0.80;;;;;;;21.18;51.29;101426.81;5139762;27;20047;-67
2023/07/20 11:03:29;;;;;;;0.87;0.80;;;;;;;21.20;51.44;101429.28;5143117;27;20053;-66
2023/07/20 11:06:32;;;;;;;0.50;0.50;;;;;;;21.22;51.49;101424.38;5132524;27;20311;-67
2023/07/20 11:09:06;;;;;;;0.63;0.60;;;;;;;21.22;50.65;101418.91;5144292;27;20130;-67
2023/07/20 11:11:37;;;;;;;0.75;0.70;;;;;;;21.21;50.90;101431.72;5139551;27;20043;-67
2023/07/20 11:14:07;;;;;;;1.77;0.80;;;;;;;21.24;50.93;101428.47;5143618;27;20111;-67
2023/07/20 11:16:38;;;;;;;1.10;0.50;;;;;;;21.24;51.19;101425.75;5140086;27;20115;-68
2023/07/20 11:19:16;;;;;;;0.82;0.75;;;;;;;21.28;51.21;101423.25;5142681;27;20055;-67
2023/07/20 11:22:07;;;;;;;0.68;0.68;;;;;;;21.32;50.69;101416.97;5142045;27;20043;-68
2023/07/20 11:24:35;;;;;;;1.02;0.90;;;;;;;21.31;50.54;101412.59;5141689;27;20051;-68
2023/07/20 11:27:03;;;;;;;1.58;0.70;;;;;;;21.37;50.98;101411.47;5143825;27;20049;-67
2023/07/20 11:29:32;;;;;;;0.75;0.75;;;;;;;21.37;50.98;101414.19;5150648;27;20047;-66
2023/07/20 11:32:03;;;;;;;1.15;0.70;;;;;;;21.42;50.60;101418.84;5138425;27;20053;-67
2023/07/20 11:34:33;;;;;;;1.02;0.63;;;;;;;21.42;50.80;101405.16;5138011;27;20131;-66